sensor_id;sensor_type;location;lat;lon;timestamp;P1;durP1;ratioP1;P2;durP2;ratioP2
20241;SDS011;10279;46.388;8.116;2024-02-14T00:00:34;0.77;;;0.73;;
20241;SDS011;10279;46.388;8.116;2024-02-14T00:03:01;1.63;;;0.80;;
20241;SDS011;10279;46.388;8.116;2024-02-14T00:05:29;0.73;;;0.73;;
20241;SDS011;10279;46.388;8.116;2024-02-14T00:07:56;1.90;;;0.83;;
20241;SDS011;10279;46.388;8.116;2024-02-14T00:10:24;1.07;;;0.77;;
20241;SDS011;10279;46.388;8.116;2024-02-14T00:12:51;0.83;;;0.60;;
20241;SDS011;10279;46.388;8.116;2024-02-14T00:15:18;0.80;;;0.60;;
20241;SDS011;10279;46.388;8.116;2024-02-14T00:17:46;1.87;;;0.87;;
20241;SDS011;10279;46.388;8.116;2024-02-14T00:20:13;1.47;;;0.87;;
20241;SDS011;10279;46.388;8.116;2024-02-14T00:22:40;3.57;;;1.00;;
20241;SDS011;10279;46.388;8.116;2024-02-14T00:25:07;2.43;;;1.00;;
20241;SDS011;10279;46.388;8.116;2024-02-14T00:27:35;1.33;;;0.60;;
20241;SDS011;10279;46.388;8.116;2024-02-14T00:30:03;2.10;;;0.80;;
20241;SDS011;10279;46.388;8.116;2024-02-14T00:32:31;0.87;;;0.73;;
20241;SDS011;10279;46.388;8.116;2024-02-14T00:35:00;1.00;;;0.60;;
20241;SDS011;10279;46.388;8.116;2024-02-14T00:37:27;1.17;;;0.63;;
20241;SDS011;10279;46.388;8.116;2024-02-14T00:39:55;0.97;;;0.60;;
20241;SDS011;10279;46.388;8.116;2024-02-14T00:42:24;1.90;;;0.80;;
20241;SDS011;10279;46.388;8.116;2024-02-14T00:44:51;0.83;;;0.80;;
20241;SDS011;10279;46.388;8.116;2024-02-14T00:47:18;0.80;;;0.70;;
20241;SDS011;10279;46.388;8.116;2024-02-14T00:49:46;1.13;;;0.70;;
20241;SDS011;10279;46.388;8.116;2024-02-14T00:52:13;0.70;;;0.70;;
20241;SDS011;10279;46.388;8.116;2024-02-14T00:54:40;2.33;;;0.90;;
20241;SDS011;10279;46.388;8.116;2024-02-14T00:57:07;0.60;;;0.60;;
20241;SDS011;10279;46.388;8.116;2024-02-14T00:59:34;1.33;;;1.07;;
20241;SDS011;10279;46.388;8.116;2024-02-14T01:02:02;0.93;;;0.90;;
20241;SDS011;10279;46.388;8.116;2024-02-14T01:04:29;0.77;;;0.77;;
20241;SDS011;10279;46.388;8.116;2024-02-14T01:06:56;1.50;;;0.93;;
20241;SDS011;10279;46.388;8.116;2024-02-14T01:09:24;1.63;;;0.90;;
20241;SDS011;10279;46.388;8.116;2024-02-14T01:11:51;1.63;;;0.60;;
20241;SDS011;10279;46.388;8.116;2024-02-14T01:14:18;1.67;;;0.73;;
20241;SDS011;10279;46.388;8.116;2024-02-14T01:16:45;2.03;;;0.70;;
20241;SDS011;10279;46.388;8.116;2024-02-14T01:19:13;0.83;;;0.70;;
20241;SDS011;10279;46.388;8.116;2024-02-14T01:21:40;1.03;;;0.80;;
20241;SDS011;10279;46.388;8.116;2024-02-14T01:24:08;2.53;;;1.07;;
20241;SDS011;10279;46.388;8.116;2024-02-14T01:26:36;1.30;;;0.90;;
20241;SDS011;10279;46.388;8.116;2024-02-14T01:29:03;3.40;;;0.87;;
20241;SDS011;10279;46.388;8.116;2024-02-14T01:31:35;1.63;;;0.60;;
20241;SDS011;10279;46.388;8.116;2024-02-14T01:34:02;3.83;;;0.80;;
20241;SDS011;10279;46.388;8.116;2024-02-14T01:36:29;1.50;;;0.80;;
20241;SDS011;10279;46.388;8.116;2024-02-14T01:38:57;2.37;;;1.00;;
20241;SDS011;10279;46.388;8.116;2024-02-14T01:41:24;1.17;;;0.80;;
20241;SDS011;10279;46.388;8.116;2024-02-14T01:43:51;1.47;;;0.80;;
20241;SDS011;10279;46.388;8.116;2024-02-14T01:46:18;4.10;;;1.33;;
20241;SDS011;10279;46.388;8.116;2024-02-14T01:48:46;2.43;;;0.90;;
20241;SDS011;10279;46.388;8.116;2024-02-14T01:51:14;1.80;;;0.70;;
20241;SDS011;10279;46.388;8.116;2024-02-14T01:53:44;1.63;;;0.63;;
20241;SDS011;10279;46.388;8.116;2024-02-14T01:56:12;2.77;;;0.80;;
20241;SDS011;10279;46.388;8.116;2024-02-14T01:58:39;0.80;;;0.60;;
20241;SDS011;10279;46.388;8.116;2024-02-14T02:01:06;2.30;;;0.70;;
20241;SDS011;10279;46.388;8.116;2024-02-14T02:03:33;2.07;;;1.33;;
20241;SDS011;10279;46.388;8.116;2024-02-14T02:06:05;0.97;;;0.67;;
20241;SDS011;10279;46.388;8.116;2024-02-14T02:08:33;1.10;;;0.80;;
20241;SDS011;10279;46.388;8.116;2024-02-14T02:11:01;1.63;;;0.77;;
20241;SDS011;10279;46.388;8.116;2024-02-14T02:13:28;2.13;;;0.70;;
20241;SDS011;10279;46.388;8.116;2024-02-14T02:15:55;1.77;;;0.57;;
20241;SDS011;10279;46.388;8.116;2024-02-14T02:18:23;1.13;;;0.70;;
20241;SDS011;10279;46.388;8.116;2024-02-14T02:20:52;0.87;;;0.50;;
20241;SDS011;10279;46.388;8.116;2024-02-14T02:23:19;0.83;;;0.70;;
20241;SDS011;10279;46.388;8.116;2024-02-14T02:25:48;6.53;;;0.83;;
20241;SDS011;10279;46.388;8.116;2024-02-14T02:28:16;2.80;;;0.80;;
20241;SDS011;10279;46.388;8.116;2024-02-14T02:30:43;1.17;;;0.80;;
20241;SDS011;10279;46.388;8.116;2024-02-14T02:33:12;2.03;;;0.70;;
20241;SDS011;10279;46.388;8.116;2024-02-14T02:35:41;1.20;;;0.67;;
20241;SDS011;10279;46.388;8.116;2024-02-14T02:38:11;1.03;;;0.60;;
20241;SDS011;10279;46.388;8.116;2024-02-14T02:40:39;3.23;;;1.27;;
20241;SDS011;10279;46.388;8.116;2024-02-14T02:43:09;2.17;;;1.13;;
20241;SDS011;10279;46.388;8.116;2024-02-14T02:45:37;0.77;;;0.77;;
20241;SDS011;10279;46.388;8.116;2024-02-14T02:48:05;0.97;;;0.60;;
20241;SDS011;10279;46.388;8.116;2024-02-14T02:50:33;2.73;;;0.40;;
20241;SDS011;10279;46.388;8.116;2024-02-14T02:53:00;1.10;;;0.50;;
20241;SDS011;10279;46.388;8.116;2024-02-14T02:55:28;1.33;;;0.70;;
20241;SDS011;10279;46.388;8.116;2024-02-14T02:57:55;1.97;;;0.80;;
20241;SDS011;10279;46.388;8.116;2024-02-14T03:00:22;0.53;;;0.53;;
20241;SDS011;10279;46.388;8.116;2024-02-14T03:02:49;1.20;;;0.70;;
20241;SDS011;10279;46.388;8.116;2024-02-14T03:05:17;0.70;;;0.57;;
20241;SDS011;10279;46.388;8.116;2024-02-14T03:07:45;1.93;;;0.57;;
20241;SDS011;10279;46.388;8.116;2024-02-14T03:10:15;1.63;;;0.50;;
20241;SDS011;10279;46.388;8.116;2024-02-14T03:12:46;0.67;;;0.60;;
20241;SDS011;10279;46.388;8.116;2024-02-14T03:15:16;0.97;;;0.73;;
20241;SDS011;10279;46.388;8.116;2024-02-14T03:17:45;1.03;;;0.60;;
20241;SDS011;10279;46.388;8.116;2024-02-14T03:20:13;1.37;;;0.70;;
20241;SDS011;10279;46.388;8.116;2024-02-14T03:22:44;1.67;;;0.70;;
20241;SDS011;10279;46.388;8.116;2024-02-14T03:25:12;0.87;;;0.70;;
20241;SDS011;10279;46.388;8.116;2024-02-14T03:27:43;0.77;;;0.50;;
20241;SDS011;10279;46.388;8.116;2024-02-14T03:30:14;0.90;;;0.70;;
20241;SDS011;10279;46.388;8.116;2024-02-14T03:32:43;0.40;;;0.40;;
20241;SDS011;10279;46.388;8.116;2024-02-14T03:35:11;1.70;;;0.80;;
20241;SDS011;10279;46.388;8.116;2024-02-14T03:37:42;0.90;;;0.40;;
20241;SDS011;10279;46.388;8.116;2024-02-14T03:40:10;0.63;;;0.50;;
20241;SDS011;10279;46.388;8.116;2024-02-14T03:42:38;0.57;;;0.50;;
20241;SDS011;10279;46.388;8.116;2024-02-14T03:45:08;2.67;;;0.80;;
20241;SDS011;10279;46.388;8.116;2024-02-14T03:47:36;1.13;;;0.70;;
20241;SDS011;10279;46.388;8.116;2024-02-14T03:50:10;1.93;;;0.57;;
20241;SDS011;10279;46.388;8.116;2024-02-14T03:52:37;0.77;;;0.53;;
20241;SDS011;10279;46.388;8.116;2024-02-14T03:55:05;0.70;;;0.67;;
20241;SDS011;10279;46.388;8.116;2024-02-14T03:57:32;3.20;;;0.70;;
20241;SDS011;10279;46.388;8.116;2024-02-14T04:00:02;0.57;;;0.57;;
20241;SDS011;10279;46.388;8.116;2024-02-14T04:02:31;1.20;;;0.63;;
20241;SDS011;10279;46.388;8.116;2024-02-14T04:04:58;1.13;;;0.73;;
20241;SDS011;10279;46.388;8.116;2024-02-14T04:07:26;0.87;;;0.50;;
20241;SDS011;10279;46.388;8.116;2024-02-14T04:09:53;0.47;;;0.47;;
20241;SDS011;10279;46.388;8.116;2024-02-14T04:12:20;1.27;;;0.60;;
20241;SDS011;10279;46.388;8.116;2024-02-14T04:14:47;0.83;;;0.50;;
20241;SDS011;10279;46.388;8.116;2024-02-14T04:17:15;1.53;;;0.80;;
20241;SDS011;10279;46.388;8.116;2024-02-14T04:19:42;0.53;;;0.53;;
20241;SDS011;10279;46.388;8.116;2024-02-14T04:22:10;0.63;;;0.60;;
20241;SDS011;10279;46.388;8.116;2024-02-14T04:24:37;0.87;;;0.60;;
20241;SDS011;10279;46.388;8.116;2024-02-14T04:27:05;0.90;;;0.60;;
20241;SDS011;10279;46.388;8.116;2024-02-14T04:29:32;0.73;;;0.60;;
20241;SDS011;10279;46.388;8.116;2024-02-14T04:32:01;0.70;;;0.63;;
20241;SDS011;10279;46.388;8.116;2024-02-14T04:34:29;0.77;;;0.70;;
20241;SDS011;10279;46.388;8.116;2024-02-14T04:36:57;4.73;;;0.60;;
20241;SDS011;10279;46.388;8.116;2024-02-14T04:39:24;2.53;;;0.60;;
20241;SDS011;10279;46.388;8.116;2024-02-14T04:41:51;2.77;;;0.70;;
20241;SDS011;10279;46.388;8.116;2024-02-14T04:44:31;0.63;;;0.60;;
20241;SDS011;10279;46.388;8.116;2024-02-14T04:46:58;0.43;;;0.40;;
20241;SDS011;10279;46.388;8.116;2024-02-14T04:49:26;0.60;;;0.50;;
20241;SDS011;10279;46.388;8.116;2024-02-14T04:51:57;0.90;;;0.50;;
20241;SDS011;10279;46.388;8.116;2024-02-14T04:54:25;0.80;;;0.47;;
20241;SDS011;10279;46.388;8.116;2024-02-14T04:56:53;0.43;;;0.43;;
20241;SDS011;10279;46.388;8.116;2024-02-14T04:59:25;0.53;;;0.30;;
20241;SDS011;10279;46.388;8.116;2024-02-14T05:01:53;0.60;;;0.60;;
20241;SDS011;10279;46.388;8.116;2024-02-14T05:04:21;1.27;;;0.80;;
20241;SDS011;10279;46.388;8.116;2024-02-14T05:06:49;0.60;;;0.50;;
20241;SDS011;10279;46.388;8.116;2024-02-14T05:09:20;2.63;;;0.80;;
20241;SDS011;10279;46.388;8.116;2024-02-14T05:11:47;3.57;;;0.70;;
20241;SDS011;10279;46.388;8.116;2024-02-14T05:14:14;2.33;;;0.93;;
20241;SDS011;10279;46.388;8.116;2024-02-14T05:16:42;0.60;;;0.50;;
20241;SDS011;10279;46.388;8.116;2024-02-14T05:19:09;2.43;;;0.50;;
20241;SDS011;10279;46.388;8.116;2024-02-14T05:21:37;1.87;;;0.60;;
20241;SDS011;10279;46.388;8.116;2024-02-14T05:24:05;1.33;;;0.70;;
20241;SDS011;10279;46.388;8.116;2024-02-14T05:26:33;1.13;;;0.60;;
20241;SDS011;10279;46.388;8.116;2024-02-14T05:29:00;0.73;;;0.70;;
20241;SDS011;10279;46.388;8.116;2024-02-14T05:31:29;3.97;;;1.00;;
20241;SDS011;10279;46.388;8.116;2024-02-14T05:34:12;0.80;;;0.57;;
20241;SDS011;10279;46.388;8.116;2024-02-14T05:36:40;2.23;;;0.80;;
20241;SDS011;10279;46.388;8.116;2024-02-14T05:39:09;1.30;;;0.57;;
20241;SDS011;10279;46.388;8.116;2024-02-14T05:41:36;3.03;;;1.53;;
20241;SDS011;10279;46.388;8.116;2024-02-14T05:44:03;10.83;;;3.13;;
20241;SDS011;10279;46.388;8.116;2024-02-14T05:46:30;21.30;;;9.17;;
20241;SDS011;10279;46.388;8.116;2024-02-14T05:48:58;24.77;;;9.97;;
20241;SDS011;10279;46.388;8.116;2024-02-14T05:51:25;24.13;;;8.33;;
20241;SDS011;10279;46.388;8.116;2024-02-14T05:53:52;9.60;;;3.13;;
20241;SDS011;10279;46.388;8.116;2024-02-14T05:56:20;4.00;;;1.70;;
20241;SDS011;10279;46.388;8.116;2024-02-14T05:58:47;5.60;;;2.60;;
20241;SDS011;10279;46.388;8.116;2024-02-14T06:01:14;8.83;;;4.20;;
20241;SDS011;10279;46.388;8.116;2024-02-14T06:03:41;13.30;;;5.20;;
20241;SDS011;10279;46.388;8.116;2024-02-14T06:06:09;4.77;;;3.03;;
20241;SDS011;10279;46.388;8.116;2024-02-14T06:08:37;2.57;;;1.67;;
20241;SDS011;10279;46.388;8.116;2024-02-14T06:11:04;2.47;;;0.93;;
20241;SDS011;10279;46.388;8.116;2024-02-14T06:13:31;2.60;;;0.70;;
20241;SDS011;10279;46.388;8.116;2024-02-14T06:15:58;2.20;;;1.00;;
20241;SDS011;10279;46.388;8.116;2024-02-14T06:18:25;1.30;;;1.07;;
20241;SDS011;10279;46.388;8.116;2024-02-14T06:20:52;1.93;;;0.90;;
20241;SDS011;10279;46.388;8.116;2024-02-14T06:23:20;2.13;;;1.23;;
20241;SDS011;10279;46.388;8.116;2024-02-14T06:25:47;4.67;;;2.10;;
20241;SDS011;10279;46.388;8.116;2024-02-14T06:28:14;4.23;;;1.87;;
20241;SDS011;10279;46.388;8.116;2024-02-14T06:30:41;1.93;;;0.93;;
20241;SDS011;10279;46.388;8.116;2024-02-14T06:33:09;2.90;;;1.10;;
20241;SDS011;10279;46.388;8.116;2024-02-14T06:35:36;1.40;;;0.70;;
20241;SDS011;10279;46.388;8.116;2024-02-14T06:38:04;2.23;;;0.83;;
20241;SDS011;10279;46.388;8.116;2024-02-14T06:40:33;4.30;;;2.60;;
20241;SDS011;10279;46.388;8.116;2024-02-14T06:43:00;3.43;;;2.60;;
20241;SDS011;10279;46.388;8.116;2024-02-14T06:45:28;2.00;;;1.30;;
20241;SDS011;10279;46.388;8.116;2024-02-14T06:47:55;2.33;;;1.00;;
20241;SDS011;10279;46.388;8.116;2024-02-14T06:50:23;3.07;;;1.20;;
20241;SDS011;10279;46.388;8.116;2024-02-14T06:52:53;1.80;;;1.10;;
20241;SDS011;10279;46.388;8.116;2024-02-14T06:55:20;3.17;;;1.07;;
20241;SDS011;10279;46.388;8.116;2024-02-14T06:57:47;3.13;;;0.83;;
20241;SDS011;10279;46.388;8.116;2024-02-14T07:00:14;1.77;;;0.93;;
20241;SDS011;10279;46.388;8.116;2024-02-14T07:02:42;1.27;;;0.90;;
20241;SDS011;10279;46.388;8.116;2024-02-14T07:05:10;6.13;;;2.43;;
20241;SDS011;10279;46.388;8.116;2024-02-14T07:07:41;4.40;;;2.00;;
20241;SDS011;10279;46.388;8.116;2024-02-14T07:10:08;5.03;;;1.10;;
20241;SDS011;10279;46.388;8.116;2024-02-14T07:12:36;1.83;;;0.90;;
20241;SDS011;10279;46.388;8.116;2024-02-14T07:15:03;1.17;;;0.90;;
20241;SDS011;10279;46.388;8.116;2024-02-14T07:17:32;2.70;;;0.93;;
20241;SDS011;10279;46.388;8.116;2024-02-14T07:20:00;5.43;;;1.30;;
20241;SDS011;10279;46.388;8.116;2024-02-14T07:22:28;2.07;;;1.50;;
20241;SDS011;10279;46.388;8.116;2024-02-14T07:24:57;3.37;;;1.17;;
20241;SDS011;10279;46.388;8.116;2024-02-14T07:27:24;2.20;;;1.43;;
20241;SDS011;10279;46.388;8.116;2024-02-14T07:29:51;3.97;;;1.50;;
20241;SDS011;10279;46.388;8.116;2024-02-14T07:32:19;4.27;;;1.40;;
20241;SDS011;10279;46.388;8.116;2024-02-14T07:34:47;2.10;;;1.43;;
20241;SDS011;10279;46.388;8.116;2024-02-14T07:37:14;1.70;;;1.00;;
20241;SDS011;10279;46.388;8.116;2024-02-14T07:39:44;2.27;;;1.30;;
20241;SDS011;10279;46.388;8.116;2024-02-14T07:42:13;1.90;;;1.00;;
20241;SDS011;10279;46.388;8.116;2024-02-14T07:44:40;0.93;;;0.83;;
20241;SDS011;10279;46.388;8.116;2024-02-14T07:47:07;5.70;;;0.90;;
20241;SDS011;10279;46.388;8.116;2024-02-14T07:49:34;3.37;;;1.00;;
20241;SDS011;10279;46.388;8.116;2024-02-14T07:52:02;5.10;;;1.67;;
20241;SDS011;10279;46.388;8.116;2024-02-14T07:54:30;2.03;;;1.30;;
20241;SDS011;10279;46.388;8.116;2024-02-14T07:56:57;1.30;;;0.80;;
20241;SDS011;10279;46.388;8.116;2024-02-14T07:59:25;2.17;;;1.40;;
20241;SDS011;10279;46.388;8.116;2024-02-14T08:01:54;1.27;;;0.97;;
20241;SDS011;10279;46.388;8.116;2024-02-14T08:04:21;4.30;;;1.23;;
20241;SDS011;10279;46.388;8.116;2024-02-14T08:06:48;1.53;;;0.90;;
20241;SDS011;10279;46.388;8.116;2024-02-14T08:09:15;2.43;;;1.30;;
20241;SDS011;10279;46.388;8.116;2024-02-14T08:11:43;2.87;;;0.97;;
20241;SDS011;10279;46.388;8.116;2024-02-14T08:14:10;5.77;;;1.20;;
20241;SDS011;10279;46.388;8.116;2024-02-14T08:16:39;1.70;;;0.90;;
20241;SDS011;10279;46.388;8.116;2024-02-14T08:19:06;0.83;;;0.80;;
20241;SDS011;10279;46.388;8.116;2024-02-14T08:21:33;1.80;;;0.80;;
20241;SDS011;10279;46.388;8.116;2024-02-14T08:24:01;2.30;;;1.10;;
20241;SDS011;10279;46.388;8.116;2024-02-14T08:26:28;2.37;;;1.37;;
20241;SDS011;10279;46.388;8.116;2024-02-14T08:28:56;1.67;;;1.17;;
20241;SDS011;10279;46.388;8.116;2024-02-14T08:31:24;1.50;;;1.30;;
20241;SDS011;10279;46.388;8.116;2024-02-14T08:33:51;4.50;;;1.30;;
20241;SDS011;10279;46.388;8.116;2024-02-14T08:36:20;3.97;;;1.07;;
20241;SDS011;10279;46.388;8.116;2024-02-14T08:38:48;1.97;;;1.03;;
20241;SDS011;10279;46.388;8.116;2024-02-14T08:41:15;3.40;;;1.50;;
20241;SDS011;10279;46.388;8.116;2024-02-14T08:43:45;1.90;;;1.27;;
20241;SDS011;10279;46.388;8.116;2024-02-14T08:46:13;3.07;;;2.37;;
20241;SDS011;10279;46.388;8.116;2024-02-14T08:48:41;2.03;;;1.73;;
20241;SDS011;10279;46.388;8.116;2024-02-14T08:51:15;3.00;;;1.27;;
20241;SDS011;10279;46.388;8.116;2024-02-14T08:53:43;2.13;;;1.00;;
20241;SDS011;10279;46.388;8.116;2024-02-14T08:56:12;1.10;;;0.80;;
20241;SDS011;10279;46.388;8.116;2024-02-14T08:58:40;1.37;;;0.80;;
20241;SDS011;10279;46.388;8.116;2024-02-14T09:01:08;2.87;;;0.93;;
20241;SDS011;10279;46.388;8.116;2024-02-14T09:03:44;1.17;;;0.80;;
20241;SDS011;10279;46.388;8.116;2024-02-14T09:06:16;1.57;;;1.10;;
20241;SDS011;10279;46.388;8.116;2024-02-14T09:08:45;2.10;;;0.80;;
20241;SDS011;10279;46.388;8.116;2024-02-14T09:11:13;2.40;;;1.30;;
20241;SDS011;10279;46.388;8.116;2024-02-14T09:13:40;1.67;;;1.20;;
20241;SDS011;10279;46.388;8.116;2024-02-14T09:16:10;6.03;;;1.77;;
20241;SDS011;10279;46.388;8.116;2024-02-14T09:18:38;2.27;;;1.47;;
20241;SDS011;10279;46.388;8.116;2024-02-14T09:21:06;1.90;;;1.40;;
20241;SDS011;10279;46.388;8.116;2024-02-14T09:23:33;1.80;;;1.10;;
20241;SDS011;10279;46.388;8.116;2024-02-14T09:26:01;1.17;;;0.97;;
20241;SDS011;10279;46.388;8.116;2024-02-14T09:28:29;2.37;;;1.33;;
20241;SDS011;10279;46.388;8.116;2024-02-14T09:30:56;2.63;;;1.23;;
20241;SDS011;10279;46.388;8.116;2024-02-14T09:33:23;1.93;;;1.00;;
20241;SDS011;10279;46.388;8.116;2024-02-14T09:35:51;2.03;;;1.07;;
20241;SDS011;10279;46.388;8.116;2024-02-14T09:38:19;1.60;;;1.00;;
20241;SDS011;10279;46.388;8.116;2024-02-14T09:40:46;1.80;;;1.30;;
20241;SDS011;10279;46.388;8.116;2024-02-14T09:46:13;2.23;;;1.17;;
20241;SDS011;10279;46.388;8.116;2024-02-14T09:48:44;1.30;;;0.90;;
20241;SDS011;10279;46.388;8.116;2024-02-14T09:51:13;0.77;;;0.67;;
20241;SDS011;10279;46.388;8.116;2024-02-14T09:53:40;3.13;;;1.00;;
20241;SDS011;10279;46.388;8.116;2024-02-14T09:56:09;8.67;;;2.37;;
20241;SDS011;10279;46.388;8.116;2024-02-14T09:58:38;3.63;;;2.00;;
20241;SDS011;10279;46.388;8.116;2024-02-14T10:01:07;1.03;;;0.90;;
20241;SDS011;10279;46.388;8.116;2024-02-14T10:03:34;1.30;;;1.10;;
20241;SDS011;10279;46.388;8.116;2024-02-14T10:06:03;2.13;;;1.40;;
20241;SDS011;10279;46.388;8.116;2024-02-14T10:08:31;4.70;;;1.47;;
20241;SDS011;10279;46.388;8.116;2024-02-14T10:10:59;2.30;;;1.20;;
20241;SDS011;10279;46.388;8.116;2024-02-14T10:13:27;1.67;;;1.10;;
20241;SDS011;10279;46.388;8.116;2024-02-14T10:15:55;1.83;;;1.10;;
20241;SDS011;10279;46.388;8.116;2024-02-14T10:18:22;1.77;;;0.80;;
20241;SDS011;10279;46.388;8.116;2024-02-14T10:20:56;1.93;;;0.80;;
20241;SDS011;10279;46.388;8.116;2024-02-14T10:23:23;4.83;;;1.43;;
20241;SDS011;10279;46.388;8.116;2024-02-14T10:25:53;1.93;;;1.23;;
20241;SDS011;10279;46.388;8.116;2024-02-14T10:28:22;3.67;;;1.23;;
20241;SDS011;10279;46.388;8.116;2024-02-14T10:31:01;1.20;;;0.80;;
20241;SDS011;10279;46.388;8.116;2024-02-14T10:33:28;1.33;;;0.83;;
20241;SDS011;10279;46.388;8.116;2024-02-14T10:35:56;2.40;;;1.07;;
20241;SDS011;10279;46.388;8.116;2024-02-14T10:38:30;1.40;;;0.70;;
20241;SDS011;10279;46.388;8.116;2024-02-14T10:41:00;0.70;;;0.70;;
20241;SDS011;10279;46.388;8.116;2024-02-14T10:43:28;1.17;;;0.80;;
20241;SDS011;10279;46.388;8.116;2024-02-14T10:45:55;0.60;;;0.60;;
20241;SDS011;10279;46.388;8.116;2024-02-14T10:48:25;0.60;;;0.60;;
20241;SDS011;10279;46.388;8.116;2024-02-14T10:51:01;0.50;;;0.50;;
20241;SDS011;10279;46.388;8.116;2024-02-14T10:53:32;0.67;;;0.60;;
20241;SDS011;10279;46.388;8.116;2024-02-14T10:56:01;0.77;;;0.60;;
20241;SDS011;10279;46.388;8.116;2024-02-14T10:58:29;1.10;;;0.67;;
20241;SDS011;10279;46.388;8.116;2024-02-14T11:00:59;1.40;;;0.90;;
20241;SDS011;10279;46.388;8.116;2024-02-14T11:03:27;0.70;;;0.50;;
20241;SDS011;10279;46.388;8.116;2024-02-14T11:06:00;2.80;;;0.60;;
20241;SDS011;10279;46.388;8.116;2024-02-14T11:08:31;0.77;;;0.53;;
20241;SDS011;10279;46.388;8.116;2024-02-14T11:11:00;0.70;;;0.67;;
20241;SDS011;10279;46.388;8.116;2024-02-14T11:13:30;0.87;;;0.60;;
20241;SDS011;10279;46.388;8.116;2024-02-14T11:16:01;0.60;;;0.60;;
20241;SDS011;10279;46.388;8.116;2024-02-14T11:18:31;1.80;;;0.40;;
20241;SDS011;10279;46.388;8.116;2024-02-14T11:21:03;1.33;;;0.47;;
20241;SDS011;10279;46.388;8.116;2024-02-14T11:23:31;2.20;;;0.43;;
20241;SDS011;10279;46.388;8.116;2024-02-14T11:25:59;1.63;;;0.80;;
20241;SDS011;10279;46.388;8.116;2024-02-14T11:28:28;1.50;;;0.50;;
20241;SDS011;10279;46.388;8.116;2024-02-14T11:31:02;0.73;;;0.60;;
20241;SDS011;10279;46.388;8.116;2024-02-14T11:33:31;0.63;;;0.50;;
20241;SDS011;10279;46.388;8.116;2024-02-14T11:36:00;0.87;;;0.53;;
20241;SDS011;10279;46.388;8.116;2024-02-14T11:38:34;0.50;;;0.40;;
20241;SDS011;10279;46.388;8.116;2024-02-14T11:41:01;1.00;;;0.43;;
20241;SDS011;10279;46.388;8.116;2024-02-14T11:43:30;0.70;;;0.50;;
20241;SDS011;10279;46.388;8.116;2024-02-14T11:45:58;0.60;;;0.50;;
20241;SDS011;10279;46.388;8.116;2024-02-14T11:48:25;0.90;;;0.70;;
20241;SDS011;10279;46.388;8.116;2024-02-14T11:50:55;0.73;;;0.60;;
20241;SDS011;10279;46.388;8.116;2024-02-14T11:53:22;1.23;;;0.60;;
20241;SDS011;10279;46.388;8.116;2024-02-14T11:55:49;0.70;;;0.57;;
20241;SDS011;10279;46.388;8.116;2024-02-14T11:58:17;2.37;;;1.87;;
20241;SDS011;10279;46.388;8.116;2024-02-14T12:00:44;0.93;;;0.70;;
20241;SDS011;10279;46.388;8.116;2024-02-14T12:03:17;0.40;;;0.40;;
20241;SDS011;10279;46.388;8.116;2024-02-14T12:05:46;1.90;;;0.30;;
20241;SDS011;10279;46.388;8.116;2024-02-14T12:08:14;0.40;;;0.40;;
20241;SDS011;10279;46.388;8.116;2024-02-14T12:10:42;0.93;;;0.40;;
20241;SDS011;10279;46.388;8.116;2024-02-14T12:13:13;0.60;;;0.60;;
20241;SDS011;10279;46.388;8.116;2024-02-14T12:15:45;0.37;;;0.37;;
20241;SDS011;10279;46.388;8.116;2024-02-14T12:18:13;0.40;;;0.40;;
20241;SDS011;10279;46.388;8.116;2024-02-14T12:20:41;1.07;;;0.30;;
20241;SDS011;10279;46.388;8.116;2024-02-14T12:23:16;2.17;;;0.57;;
20241;SDS011;10279;46.388;8.116;2024-02-14T12:25:48;2.20;;;0.67;;
20241;SDS011;10279;46.388;8.116;2024-02-14T12:28:16;0.70;;;0.50;;
20241;SDS011;10279;46.388;8.116;2024-02-14T12:30:50;0.70;;;0.50;;
20241;SDS011;10279;46.388;8.116;2024-02-14T12:33:23;1.03;;;0.70;;
20241;SDS011;10279;46.388;8.116;2024-02-14T12:35:53;2.07;;;0.47;;
20241;SDS011;10279;46.388;8.116;2024-02-14T12:38:21;1.73;;;0.70;;
20241;SDS011;10279;46.388;8.116;2024-02-14T12:40:51;0.87;;;0.60;;
20241;SDS011;10279;46.388;8.116;2024-02-14T12:43:21;0.70;;;0.43;;
20241;SDS011;10279;46.388;8.116;2024-02-14T12:45:48;0.30;;;0.30;;
20241;SDS011;10279;46.388;8.116;2024-02-14T12:48:22;0.75;;;0.40;;
20241;SDS011;10279;46.388;8.116;2024-02-14T12:50:54;0.90;;;0.63;;
20241;SDS011;10279;46.388;8.116;2024-02-14T12:53:23;0.90;;;0.87;;
20241;SDS011;10279;46.388;8.116;2024-02-14T12:55:50;0.73;;;0.65;;
20241;SDS011;10279;46.388;8.116;2024-02-14T12:58:17;1.30;;;1.20;;
20241;SDS011;10279;46.388;8.116;2024-02-14T13:00:45;0.85;;;0.75;;
20241;SDS011;10279;46.388;8.116;2024-02-14T13:03:13;1.52;;;0.90;;
20241;SDS011;10279;46.388;8.116;2024-02-14T13:05:43;0.55;;;0.50;;
20241;SDS011;10279;46.388;8.116;2024-02-14T13:08:11;1.05;;;0.80;;
20241;SDS011;10279;46.388;8.116;2024-02-14T13:10:38;0.50;;;0.50;;
20241;SDS011;10279;46.388;8.116;2024-02-14T13:13:06;0.70;;;0.55;;
20241;SDS011;10279;46.388;8.116;2024-02-14T13:15:33;1.00;;;0.70;;
20241;SDS011;10279;46.388;8.116;2024-02-14T13:18:00;0.50;;;0.50;;
20241;SDS011;10279;46.388;8.116;2024-02-14T13:20:28;1.35;;;0.40;;
20241;SDS011;10279;46.388;8.116;2024-02-14T13:22:56;0.50;;;0.50;;
20241;SDS011;10279;46.388;8.116;2024-02-14T13:25:23;0.60;;;0.50;;
20241;SDS011;10279;46.388;8.116;2024-02-14T13:27:50;0.33;;;0.30;;
20241;SDS011;10279;46.388;8.116;2024-02-14T13:30:17;0.40;;;0.40;;
20241;SDS011;10279;46.388;8.116;2024-02-14T13:32:45;0.57;;;0.37;;
20241;SDS011;10279;46.388;8.116;2024-02-14T13:35:13;1.07;;;0.40;;
20241;SDS011;10279;46.388;8.116;2024-02-14T13:37:41;0.47;;;0.40;;
20241;SDS011;10279;46.388;8.116;2024-02-14T13:40:08;0.57;;;0.40;;
20241;SDS011;10279;46.388;8.116;2024-02-14T13:42:37;0.23;;;0.23;;
20241;SDS011;10279;46.388;8.116;2024-02-14T13:45:07;0.30;;;0.30;;
20241;SDS011;10279;46.388;8.116;2024-02-14T13:47:38;0.50;;;0.30;;
20241;SDS011;10279;46.388;8.116;2024-02-14T13:50:07;0.30;;;0.27;;
20241;SDS011;10279;46.388;8.116;2024-02-14T13:52:35;1.03;;;0.33;;
20241;SDS011;10279;46.388;8.116;2024-02-14T13:55:03;0.30;;;0.30;;
20241;SDS011;10279;46.388;8.116;2024-02-14T13:57:33;0.53;;;0.50;;
20241;SDS011;10279;46.388;8.116;2024-02-14T14:00:07;0.93;;;0.40;;
20241;SDS011;10279;46.388;8.116;2024-02-14T14:02:36;1.03;;;0.40;;
20241;SDS011;10279;46.388;8.116;2024-02-14T14:05:08;0.30;;;0.30;;
20241;SDS011;10279;46.388;8.116;2024-02-14T14:07:43;0.40;;;0.40;;
20241;SDS011;10279;46.388;8.116;2024-02-14T14:10:23;1.17;;;0.50;;
20241;SDS011;10279;46.388;8.116;2024-02-14T14:12:53;0.33;;;0.33;;
20241;SDS011;10279;46.388;8.116;2024-02-14T14:15:21;0.40;;;0.40;;
20241;SDS011;10279;46.388;8.116;2024-02-14T14:17:53;0.53;;;0.43;;
20241;SDS011;10279;46.388;8.116;2024-02-14T14:20:20;0.53;;;0.43;;
20241;SDS011;10279;46.388;8.116;2024-02-14T14:22:47;0.50;;;0.30;;
20241;SDS011;10279;46.388;8.116;2024-02-14T14:25:15;1.07;;;0.30;;
20241;SDS011;10279;46.388;8.116;2024-02-14T14:27:42;0.30;;;0.30;;
20241;SDS011;10279;46.388;8.116;2024-02-14T14:30:10;0.37;;;0.30;;
20241;SDS011;10279;46.388;8.116;2024-02-14T14:32:38;0.30;;;0.30;;
20241;SDS011;10279;46.388;8.116;2024-02-14T14:35:07;0.83;;;0.60;;
20241;SDS011;10279;46.388;8.116;2024-02-14T14:37:37;1.07;;;0.60;;
20241;SDS011;10279;46.388;8.116;2024-02-14T14:40:05;1.93;;;0.63;;
20241;SDS011;10279;46.388;8.116;2024-02-14T14:42:35;1.23;;;0.67;;
20241;SDS011;10279;46.388;8.116;2024-02-14T14:45:03;1.57;;;0.50;;
20241;SDS011;10279;46.388;8.116;2024-02-14T14:47:30;1.97;;;0.60;;
20241;SDS011;10279;46.388;8.116;2024-02-14T14:49:58;4.73;;;0.80;;
20241;SDS011;10279;46.388;8.116;2024-02-14T14:52:26;2.83;;;0.43;;
20241;SDS011;10279;46.388;8.116;2024-02-14T14:54:53;3.57;;;0.60;;
20241;SDS011;10279;46.388;8.116;2024-02-14T14:57:20;3.87;;;0.90;;